YGIS weather

Gisborne Helipad
Gisborne, Victoria, Australia

Public forecast

Using degrees Celsius for public forecast. Weather courtesy of forecast.io.

METAR (pilot weather report)

Closest report is Melbourne International Airport, 16.7 nm (30.9 km) SE. Retrieved 2019/04/21 12:00 UTC (6 minutes ago):

YMML 211200Z 22012KT 9999 BKN017 BKN026 15/11 Q1022 FM1200 24013KT 9999 -SHRA SCT015 BKN020 INTER 1200/1500 5000 SHRA BKN012

TAF (pilot weather forecast)

Closest forecast is Melbourne International Airport, 16.7 nm (30.9 km) SE. Retrieved 2019/04/21 12:00 UTC (6 minutes ago):

TAF YMML 211112Z 2112/2218 24013KT 9999 -SHRA SCT015 BKN020 FM211600 19010KT 9999 -SHRA SCT010 BKN015 BECMG 2121/2123 24010KT 9999 -SHRA SCT018 BKN025 FM220200 17010KT 9999 BKN030 FM221400 22006KT 9999 SCT025 INTER 2112/2116 5000 SHRA BKN012 TEMPO 2116/2123 5000 SHRA BKN010